sensor_id;sensor_type;location;lat;lon;timestamp;pressure;altitude;pressure_sealevel;temperature;humidity
60355;BME280;46198;51.464;-0.066;2023-03-04T00:00:32;102970.16;;;5.91;91.03
60355;BME280;46198;51.464;-0.066;2023-03-04T00:03:01;102979.25;;;5.90;91.78
60355;BME280;46198;51.464;-0.066;2023-03-04T00:05:29;102988.31;;;5.89;91.76
60355;BME280;46198;51.464;-0.066;2023-03-04T00:07:57;102982.69;;;5.92;91.75
60355;BME280;46198;51.464;-0.066;2023-03-04T00:10:25;102972.75;;;5.92;91.06
60355;BME280;46198;51.464;-0.066;2023-03-04T00:12:53;102981.69;;;5.93;91.59
60355;BME280;46198;51.464;-0.066;2023-03-04T00:15:21;102975.72;;;5.89;92.81
60355;BME280;46198;51.464;-0.066;2023-03-04T00:17:49;102975.56;;;5.91;91.90
60355;BME280;46198;51.464;-0.066;2023-03-04T00:20:19;102973.88;;;5.90;92.62
60355;BME280;46198;51.464;-0.066;2023-03-04T00:22:47;102977.81;;;5.86;92.56
60355;BME280;46198;51.464;-0.066;2023-03-04T00:25:15;102972.13;;;5.89;91.83
60355;BME280;46198;51.464;-0.066;2023-03-04T00:27:43;102975.25;;;5.84;91.88
60355;BME280;46198;51.464;-0.066;2023-03-04T00:30:11;102976.13;;;5.85;91.36
60355;BME280;46198;51.464;-0.066;2023-03-04T00:32:41;102975.13;;;5.86;91.89
60355;BME280;46198;51.464;-0.066;2023-03-04T00:35:09;102975.38;;;5.83;91.83
60355;BME280;46198;51.464;-0.066;2023-03-04T00:37:39;102965.44;;;5.83;91.05
60355;BME280;46198;51.464;-0.066;2023-03-04T00:40:07;102966.84;;;5.77;92.68
60355;BME280;46198;51.464;-0.066;2023-03-04T00:42:36;102973.25;;;5.86;92.22
60355;BME280;46198;51.464;-0.066;2023-03-04T00:45:05;102968.75;;;5.87;92.06
60355;BME280;46198;51.464;-0.066;2023-03-04T00:47:33;102969.03;;;5.84;92.89
60355;BME280;46198;51.464;-0.066;2023-03-04T00:50:02;102963.88;;;5.71;93.28
60355;BME280;46198;51.464;-0.066;2023-03-04T00:52:30;102967.69;;;5.68;94.44
60355;BME280;46198;51.464;-0.066;2023-03-04T00:54:59;102968.25;;;5.72;94.19
60355;BME280;46198;51.464;-0.066;2023-03-04T00:57:27;102960.44;;;5.69;93.11
60355;BME280;46198;51.464;-0.066;2023-03-04T00:59:55;102961.28;;;5.69;93.87
60355;BME280;46198;51.464;-0.066;2023-03-04T01:02:23;102965.81;;;5.69;95.08
60355;BME280;46198;51.464;-0.066;2023-03-04T01:04:52;102974.59;;;5.61;94.39
60355;BME280;46198;51.464;-0.066;2023-03-04T01:07:20;102967.22;;;5.63;93.41
60355;BME280;46198;51.464;-0.066;2023-03-04T01:09:48;102967.69;;;5.68;92.99
60355;BME280;46198;51.464;-0.066;2023-03-04T01:12:18;102955.88;;;5.60;94.76
60355;BME280;46198;51.464;-0.066;2023-03-04T01:14:46;102954.75;;;5.62;95.51
60355;BME280;46198;51.464;-0.066;2023-03-04T01:17:14;102962.56;;;5.65;95.11
60355;BME280;46198;51.464;-0.066;2023-03-04T01:19:43;102953.88;;;5.62;95.58
60355;BME280;46198;51.464;-0.066;2023-03-04T01:22:11;102951.19;;;5.62;96.41
60355;BME280;46198;51.464;-0.066;2023-03-04T01:24:41;102960.31;;;5.70;95.39
60355;BME280;46198;51.464;-0.066;2023-03-04T01:27:09;102957.91;;;5.67;95.14
60355;BME280;46198;51.464;-0.066;2023-03-04T01:29:39;102961.28;;;5.69;96.04
60355;BME280;46198;51.464;-0.066;2023-03-04T01:32:07;102961.28;;;5.69;95.83
60355;BME280;46198;51.464;-0.066;2023-03-04T01:34:35;102965.81;;;5.69;95.43
60355;BME280;46198;51.464;-0.066;2023-03-04T01:37:03;102957.03;;;5.67;95.06
60355;BME280;46198;51.464;-0.066;2023-03-04T01:39:31;102952.75;;;5.64;95.92
60355;BME280;46198;51.464;-0.066;2023-03-04T01:41:59;102949.25;;;5.73;94.99
60355;BME280;46198;51.464;-0.066;2023-03-04T01:44:27;102945.84;;;5.71;96.28
60355;BME280;46198;51.464;-0.066;2023-03-04T01:46:57;102951.22;;;5.71;95.81
60355;BME280;46198;51.464;-0.066;2023-03-04T01:49:25;102948.09;;;5.66;97.79
60355;BME280;46198;51.464;-0.066;2023-03-04T01:51:53;102941.44;;;5.70;96.52
60355;BME280;46198;51.464;-0.066;2023-03-04T01:54:22;102947.13;;;5.67;97.71
60355;BME280;46198;51.464;-0.066;2023-03-04T01:56:51;102945.00;;;5.71;97.25
60355;BME280;46198;51.464;-0.066;2023-03-04T01:59:21;102946.84;;;5.70;97.52
60355;BME280;46198;51.464;-0.066;2023-03-04T02:01:52;102937.47;;;5.65;98.29
60355;BME280;46198;51.464;-0.066;2023-03-04T02:04:24;102935.47;;;5.67;100.00
60355;BME280;46198;51.464;-0.066;2023-03-04T02:06:54;102941.56;;;5.59;100.00
60355;BME280;46198;51.464;-0.066;2023-03-04T02:09:23;102934.22;;;5.71;99.67
60355;BME280;46198;51.464;-0.066;2023-03-04T02:11:52;102930.94;;;5.67;100.00
60355;BME280;46198;51.464;-0.066;2023-03-04T02:14:21;102926.06;;;5.61;100.00
60355;BME280;46198;51.464;-0.066;2023-03-04T02:16:49;102926.81;;;5.63;100.00
60355;BME280;46198;51.464;-0.066;2023-03-04T02:19:28;102924.94;;;5.64;100.00
60355;BME280;46198;51.464;-0.066;2023-03-04T02:22:01;102928.09;;;5.69;100.00
60355;BME280;46198;51.464;-0.066;2023-03-04T02:24:33;102921.84;;;5.68;100.00
60355;BME280;46198;51.464;-0.066;2023-03-04T02:27:05;102920.16;;;5.67;100.00
60355;BME280;46198;51.464;-0.066;2023-03-04T02:29:33;102922.41;;;5.62;100.00
60355;BME280;46198;51.464;-0.066;2023-03-04T02:32:02;102918.44;;;5.66;100.00
60355;BME280;46198;51.464;-0.066;2023-03-04T02:34:33;102915.91;;;5.65;100.00
60355;BME280;46198;51.464;-0.066;2023-03-04T02:37:02;102919.25;;;5.57;100.00
60355;BME280;46198;51.464;-0.066;2023-03-04T02:39:34;102910.91;;;5.60;100.00
60355;BME280;46198;51.464;-0.066;2023-03-04T02:42:04;102907.63;;;5.57;100.00
60355;BME280;46198;51.464;-0.066;2023-03-04T02:44:34;102911.03;;;5.59;100.00
60355;BME280;46198;51.464;-0.066;2023-03-04T02:47:04;102900.56;;;5.65;100.00
60355;BME280;46198;51.464;-0.066;2023-03-04T02:49:35;102900.25;;;5.59;100.00
60355;BME280;46198;51.464;-0.066;2023-03-04T02:52:05;102899.41;;;5.58;100.00
60355;BME280;46198;51.464;-0.066;2023-03-04T02:54:34;102905.63;;;5.59;100.00
60355;BME280;46198;51.464;-0.066;2023-03-04T02:57:07;102901.38;;;5.56;100.00
60355;BME280;46198;51.464;-0.066;2023-03-04T02:59:39;102898.16;;;5.62;100.00
60355;BME280;46198;51.464;-0.066;2023-03-04T03:02:10;102891.31;;;5.58;100.00
60355;BME280;46198;51.464;-0.066;2023-03-04T03:04:39;102899.69;;;5.55;100.00
60355;BME280;46198;51.464;-0.066;2023-03-04T03:07:11;102896.72;;;5.58;100.00
60355;BME280;46198;51.464;-0.066;2023-03-04T03:09:40;102897.72;;;5.57;100.00
60355;BME280;46198;51.464;-0.066;2023-03-04T03:12:09;102892.31;;;5.57;100.00
60355;BME280;46198;51.464;-0.066;2023-03-04T03:14:37;102887.38;;;5.62;100.00
60355;BME280;46198;51.464;-0.066;2023-03-04T03:17:08;102884.50;;;5.54;100.00
60355;BME280;46198;51.464;-0.066;2023-03-04T03:19:36;102889.63;;;5.57;100.00
60355;BME280;46198;51.464;-0.066;2023-03-04T03:22:06;102885.94;;;5.58;100.00
60355;BME280;46198;51.464;-0.066;2023-03-04T03:24:34;102885.19;;;5.56;100.00
60355;BME280;46198;51.464;-0.066;2023-03-04T03:27:02;102889.19;;;5.62;100.00
60355;BME280;46198;51.464;-0.066;2023-03-04T03:29:32;102888.34;;;5.61;100.00
60355;BME280;46198;51.464;-0.066;2023-03-04T03:32:00;102888.91;;;5.55;100.00
60355;BME280;46198;51.464;-0.066;2023-03-04T03:34:28;102887.78;;;5.58;100.00
60355;BME280;46198;51.464;-0.066;2023-03-04T03:36:56;102889.19;;;5.52;100.00
60355;BME280;46198;51.464;-0.066;2023-03-04T03:39:24;102880.66;;;5.47;100.00
60355;BME280;46198;51.464;-0.066;2023-03-04T03:41:52;102885.72;;;5.40;100.00
60355;BME280;46198;51.464;-0.066;2023-03-04T03:44:20;102880.91;;;5.44;100.00
60355;BME280;46198;51.464;-0.066;2023-03-04T03:46:49;102886.03;;;5.47;100.00
60355;BME280;46198;51.464;-0.066;2023-03-04T03:49:17;102885.19;;;5.46;100.00
60355;BME280;46198;51.464;-0.066;2023-03-04T03:51:45;102883.06;;;5.50;100.00
60355;BME280;46198;51.464;-0.066;2023-03-04T03:54:13;102890.41;;;5.48;100.00
60355;BME280;46198;51.464;-0.066;2023-03-04T03:56:41;102886.75;;;5.49;100.00
60355;BME280;46198;51.464;-0.066;2023-03-04T03:59:09;102886.03;;;5.47;100.00
60355;BME280;46198;51.464;-0.066;2023-03-04T04:01:37;102879.25;;;5.52;100.00
60355;BME280;46198;51.464;-0.066;2023-03-04T04:04:07;102879.53;;;5.49;100.00
60355;BME280;46198;51.464;-0.066;2023-03-04T04:06:35;102885.75;;;5.50;100.00
60355;BME280;46198;51.464;-0.066;2023-03-04T04:09:03;102880.81;;;5.55;100.00
60355;BME280;46198;51.464;-0.066;2023-03-04T04:11:31;102885.19;;;5.56;100.00
60355;BME280;46198;51.464;-0.066;2023-03-04T04:13:59;102886.31;;;5.53;100.00
60355;BME280;46198;51.464;-0.066;2023-03-04T04:16:27;102880.53;;;5.58;100.00
60355;BME280;46198;51.464;-0.066;2023-03-04T04:18:55;102881.25;;;5.60;100.00
60355;BME280;46198;51.464;-0.066;2023-03-04T04:21:24;102881.25;;;5.60;100.00
60355;BME280;46198;51.464;-0.066;2023-03-04T04:23:53;102883.81;;;5.62;100.00
60355;BME280;46198;51.464;-0.066;2023-03-04T04:26:21;102882.09;;;5.61;100.00
60355;BME280;46198;51.464;-0.066;2023-03-04T04:28:49;102880.25;;;5.61;100.00
60355;BME280;46198;51.464;-0.066;2023-03-04T04:31:16;102880.13;;;5.63;100.00
60355;BME280;46198;51.464;-0.066;2023-03-04T04:33:44;102888.78;;;5.66;100.00
60355;BME280;46198;51.464;-0.066;2023-03-04T04:36:14;102884.69;;;5.62;100.00
60355;BME280;46198;51.464;-0.066;2023-03-04T04:38:43;102892.59;;;5.64;100.00
60355;BME280;46198;51.464;-0.066;2023-03-04T04:41:18;102887.22;;;5.64;100.00
60355;BME280;46198;51.464;-0.066;2023-03-04T04:43:46;102892.34;;;5.67;100.00
60355;BME280;46198;51.464;-0.066;2023-03-04T04:46:15;102888.22;;;5.63;100.00
60355;BME280;46198;51.464;-0.066;2023-03-04T04:48:43;102898.84;;;5.64;100.00
60355;BME280;46198;51.464;-0.066;2023-03-04T04:51:11;102898.72;;;5.66;100.00
60355;BME280;46198;51.464;-0.066;2023-03-04T04:53:40;102897.88;;;5.65;100.00
60355;BME280;46198;51.464;-0.066;2023-03-04T04:56:11;102895.31;;;5.64;100.00
60355;BME280;46198;51.464;-0.066;2023-03-04T04:58:40;102893.47;;;5.64;100.00
60355;BME280;46198;51.464;-0.066;2023-03-04T05:01:08;102897.44;;;5.60;100.00
60355;BME280;46198;51.464;-0.066;2023-03-04T05:03:37;102906.81;;;5.66;100.00
60355;BME280;46198;51.464;-0.066;2023-03-04T05:06:07;102894.75;;;5.60;100.00
60355;BME280;46198;51.464;-0.066;2023-03-04T05:08:35;102902.09;;;5.58;100.00
60355;BME280;46198;51.464;-0.066;2023-03-04T05:11:05;102899.69;;;5.55;100.00
60355;BME280;46198;51.464;-0.066;2023-03-04T05:13:34;102909.59;;;5.54;100.00
60355;BME280;46198;51.464;-0.066;2023-03-04T05:16:03;102909.91;;;5.61;100.00
60355;BME280;46198;51.464;-0.066;2023-03-04T05:18:31;102910.19;;;5.58;100.00
60355;BME280;46198;51.464;-0.066;2023-03-04T05:21:00;102917.03;;;5.62;100.00
60355;BME280;46198;51.464;-0.066;2023-03-04T05:23:31;102924.50;;;5.59;100.00
60355;BME280;46198;51.464;-0.066;2023-03-04T05:26:00;102920.97;;;5.58;100.00
60355;BME280;46198;51.464;-0.066;2023-03-04T05:28:28;102926.63;;;5.55;100.00
60355;BME280;46198;51.464;-0.066;2023-03-04T05:30:58;102921.06;;;5.47;100.00
60355;BME280;46198;51.464;-0.066;2023-03-04T05:33:26;102918.38;;;5.47;100.00
60355;BME280;46198;51.464;-0.066;2023-03-04T05:35:54;102925.44;;;5.48;100.00
60355;BME280;46198;51.464;-0.066;2023-03-04T05:38:23;102919.78;;;5.51;100.00
60355;BME280;46198;51.464;-0.066;2023-03-04T05:41:17;102918.94;;;5.50;100.00
60355;BME280;46198;51.464;-0.066;2023-03-04T05:43:48;102920.50;;;5.53;100.00
60355;BME280;46198;51.464;-0.066;2023-03-04T05:46:18;102921.78;;;5.49;100.00
60355;BME280;46198;51.464;-0.066;2023-03-04T05:48:51;102925.72;;;5.45;100.00
60355;BME280;46198;51.464;-0.066;2023-03-04T05:51:20;102923.03;;;5.45;100.00
60355;BME280;46198;51.464;-0.066;2023-03-04T05:53:48;102918.63;;;5.44;100.00
60355;BME280;46198;51.464;-0.066;2023-03-04T05:56:18;102924.59;;;5.47;100.00
60355;BME280;46198;51.464;-0.066;2023-03-04T05:58:46;102921.06;;;5.47;100.00
60355;BME280;46198;51.464;-0.066;2023-03-04T06:01:15;102927.13;;;5.39;100.00
60355;BME280;46198;51.464;-0.066;2023-03-04T06:03:44;102930.53;;;5.41;100.00
60355;BME280;46198;51.464;-0.066;2023-03-04T06:06:14;102926.84;;;5.42;100.00
60355;BME280;46198;51.464;-0.066;2023-03-04T06:09:07;102936.03;;;5.40;100.00
60355;BME280;46198;51.464;-0.066;2023-03-04T06:11:35;102936.19;;;5.38;100.00
60355;BME280;46198;51.464;-0.066;2023-03-04T06:14:04;102925.28;;;5.40;100.00
60355;BME280;46198;51.464;-0.066;2023-03-04T06:16:32;102934.47;;;5.37;100.00
60355;BME280;46198;51.464;-0.066;2023-03-04T06:19:01;102927.66;;;5.33;100.00
60355;BME280;46198;51.464;-0.066;2023-03-04T06:21:29;102924.13;;;5.32;100.00
60355;BME280;46198;51.464;-0.066;2023-03-04T06:23:57;102929.22;;;5.36;100.00
60355;BME280;46198;51.464;-0.066;2023-03-04T06:26:25;102920.16;;;5.37;100.00
60355;BME280;46198;51.464;-0.066;2023-03-04T06:28:53;102921.72;;;5.39;100.00
60355;BME280;46198;51.464;-0.066;2023-03-04T06:31:22;102923.56;;;5.39;100.00
60355;BME280;46198;51.464;-0.066;2023-03-04T06:33:50;102923.00;;;5.35;100.00
60355;BME280;46198;51.464;-0.066;2023-03-04T06:36:20;102926.09;;;5.30;100.00
60355;BME280;46198;51.464;-0.066;2023-03-04T06:38:48;102924.25;;;5.31;100.00
60355;BME280;46198;51.464;-0.066;2023-03-04T06:41:16;102926.81;;;5.32;100.00
60355;BME280;46198;51.464;-0.066;2023-03-04T06:43:44;102932.72;;;5.26;100.00
60355;BME280;46198;51.464;-0.066;2023-03-04T06:46:12;102936.13;;;5.28;100.00
60355;BME280;46198;51.464;-0.066;2023-03-04T06:52:27;102940.88;;;5.15;100.00
60355;BME280;46198;51.464;-0.066;2023-03-04T06:54:55;102940.03;;;5.15;100.00
60355;BME280;46198;51.464;-0.066;2023-03-04T06:57:23;102941.59;;;5.17;100.00
60355;BME280;46198;51.464;-0.066;2023-03-04T06:59:51;102952.09;;;5.20;100.00
60355;BME280;46198;51.464;-0.066;2023-03-04T07:02:19;102945.28;;;5.16;100.00
60355;BME280;46198;51.464;-0.066;2023-03-04T07:04:47;102953.94;;;5.20;100.00
60355;BME280;46198;51.464;-0.066;2023-03-04T07:07:15;102952.38;;;5.17;100.00
60355;BME280;46198;51.464;-0.066;2023-03-04T07:09:44;102953.22;;;5.18;100.00
60355;BME280;46198;51.464;-0.066;2023-03-04T07:12:12;102949.69;;;5.17;100.00
60355;BME280;46198;51.464;-0.066;2023-03-04T07:14:40;102958.50;;;5.19;100.00
60355;BME280;46198;51.464;-0.066;2023-03-04T07:17:08;102964.16;;;5.16;100.00
60355;BME280;46198;51.464;-0.066;2023-03-04T07:19:36;102969.00;;;5.22;100.00
60355;BME280;46198;51.464;-0.066;2023-03-04T07:22:04;102959.53;;;5.07;100.00
60355;BME280;46198;51.464;-0.066;2023-03-04T07:24:32;102967.81;;;5.15;100.00
60355;BME280;46198;51.464;-0.066;2023-03-04T07:27:02;102963.03;;;5.19;100.00
60355;BME280;46198;51.464;-0.066;2023-03-04T07:29:30;102974.03;;;5.16;100.00
60355;BME280;46198;51.464;-0.066;2023-03-04T07:31:58;102972.06;;;5.18;100.00
60355;BME280;46198;51.464;-0.066;2023-03-04T07:34:26;102978.31;;;5.18;100.00
60355;BME280;46198;51.464;-0.066;2023-03-04T07:36:54;102974.38;;;5.22;100.00
60355;BME280;46198;51.464;-0.066;2023-03-04T07:39:22;102972.69;;;5.21;100.00
60355;BME280;46198;51.464;-0.066;2023-03-04T07:41:51;102971.22;;;5.17;100.00
60355;BME280;46198;51.464;-0.066;2023-03-04T07:44:20;102970.50;;;5.15;100.00
60355;BME280;46198;51.464;-0.066;2023-03-04T07:46:48;102973.66;;;5.20;100.00
60355;BME280;46198;51.464;-0.066;2023-03-04T07:49:16;102980.16;;;5.18;100.00
60355;BME280;46198;51.464;-0.066;2023-03-04T07:51:44;102981.16;;;5.17;100.00
60355;BME280;46198;51.464;-0.066;2023-03-04T07:54:12;102981.25;;;5.15;100.00
60355;BME280;46198;51.464;-0.066;2023-03-04T07:56:40;102982.56;;;5.21;100.00
60355;BME280;46198;51.464;-0.066;2023-03-04T07:59:08;102985.72;;;5.26;100.00
60355;BME280;46198;51.464;-0.066;2023-03-04T08:04:55;102984.63;;;5.28;100.00
60355;BME280;46198;51.464;-0.066;2023-03-04T08:07:23;102992.22;;;5.23;100.00
60355;BME280;46198;51.464;-0.066;2023-03-04T08:09:51;102982.91;;;5.27;100.00
60355;BME280;46198;51.464;-0.066;2023-03-04T08:12:19;102989.44;;;5.25;100.00
60355;BME280;46198;51.464;-0.066;2023-03-04T08:14:47;102986.34;;;5.29;100.00
60355;BME280;46198;51.464;-0.066;2023-03-04T08:17:15;102994.44;;;5.29;100.00
60355;BME280;46198;51.464;-0.066;2023-03-04T08:19:43;102991.03;;;5.37;100.00
60355;BME280;46198;51.464;-0.066;2023-03-04T08:22:13;102994.94;;;5.44;100.00
60355;BME280;46198;51.464;-0.066;2023-03-04T08:24:41;102992.69;;;5.49;100.00
60355;BME280;46198;51.464;-0.066;2023-03-04T08:27:09;102991.69;;;5.50;100.00
60355;BME280;46198;51.464;-0.066;2023-03-04T08:29:37;102997.00;;;5.62;100.00
60355;BME280;46198;51.464;-0.066;2023-03-04T08:32:05;102993.06;;;5.66;100.00
60355;BME280;46198;51.464;-0.066;2023-03-04T08:34:33;102998.31;;;5.67;100.00
60355;BME280;46198;51.464;-0.066;2023-03-04T08:37:01;102997.91;;;5.72;100.00
60355;BME280;46198;51.464;-0.066;2023-03-04T08:39:30;102992.84;;;5.78;100.00
60355;BME280;46198;51.464;-0.066;2023-03-04T08:41:59;103003.06;;;5.85;100.00
60355;BME280;46198;51.464;-0.066;2023-03-04T08:44:26;103002.63;;;5.80;100.00
60355;BME280;46198;51.464;-0.066;2023-03-04T08:46:55;102993.00;;;5.87;100.00
60355;BME280;46198;51.464;-0.066;2023-03-04T08:49:23;102995.72;;;5.87;100.00
60355;BME280;46198;51.464;-0.066;2023-03-04T08:51:51;102999.09;;;5.89;100.00
60355;BME280;46198;51.464;-0.066;2023-03-04T08:54:19;102994.72;;;5.88;100.00
60355;BME280;46198;51.464;-0.066;2023-03-04T08:56:48;102997.00;;;5.92;100.00
60355;BME280;46198;51.464;-0.066;2023-03-04T08:59:16;102987.56;;;5.98;100.00
60355;BME280;46198;51.464;-0.066;2023-03-04T09:01:44;102985.81;;;5.97;100.00
60355;BME280;46198;51.464;-0.066;2023-03-04T09:04:13;102986.59;;;6.09;100.00
60355;BME280;46198;51.464;-0.066;2023-03-04T09:06:41;102987.72;;;6.06;100.00
60355;BME280;46198;51.464;-0.066;2023-03-04T09:09:09;102991.31;;;6.16;100.00
60355;BME280;46198;51.464;-0.066;2023-03-04T09:11:37;102981.94;;;6.20;100.00
60355;BME280;46198;51.464;-0.066;2023-03-04T09:14:06;102984.22;;;6.25;100.00
60355;BME280;46198;51.464;-0.066;2023-03-04T09:16:34;102986.75;;;6.27;100.00
60355;BME280;46198;51.464;-0.066;2023-03-04T09:19:02;102980.56;;;6.36;100.00
60355;BME280;46198;51.464;-0.066;2023-03-04T09:21:30;102983.41;;;6.44;100.00
60355;BME280;46198;51.464;-0.066;2023-03-04T09:23:58;102985.13;;;6.55;100.00
60355;BME280;46198;51.464;-0.066;2023-03-04T09:26:27;102984.13;;;6.56;100.00
60355;BME280;46198;51.464;-0.066;2023-03-04T09:28:58;102991.94;;;6.59;100.00
60355;BME280;46198;51.464;-0.066;2023-03-04T09:31:28;102981.44;;;6.65;100.00
60355;BME280;46198;51.464;-0.066;2023-03-04T09:33:58;102991.38;;;6.75;100.00
60355;BME280;46198;51.464;-0.066;2023-03-04T09:36:26;102989.97;;;6.80;100.00
60355;BME280;46198;51.464;-0.066;2023-03-04T09:38:58;102995.53;;;6.79;100.00
60355;BME280;46198;51.464;-0.066;2023-03-04T09:41:32;102983.72;;;6.80;100.00
60355;BME280;46198;51.464;-0.066;2023-03-04T09:44:11;102993.66;;;6.79;100.00
60355;BME280;46198;51.464;-0.066;2023-03-04T09:46:44;102989.97;;;6.71;100.00
60355;BME280;46198;51.464;-0.066;2023-03-04T09:49:14;102993.66;;;6.89;100.00
60355;BME280;46198;51.464;-0.066;2023-03-04T09:51:47;102988.53;;;6.96;100.00
60355;BME280;46198;51.464;-0.066;2023-03-04T09:54:26;102988.00;;;6.92;100.00
60355;BME280;46198;51.464;-0.066;2023-03-04T09:57:14;102985.69;;;6.97;100.00
60355;BME280;46198;51.464;-0.066;2023-03-04T09:59:49;102983.56;;;7.01;100.00
60355;BME280;46198;51.464;-0.066;2023-03-04T10:02:28;102985.69;;;6.97;100.00
60355;BME280;46198;51.464;-0.066;2023-03-04T10:05:02;102989.25;;;6.88;100.00
60355;BME280;46198;51.464;-0.066;2023-03-04T10:07:34;102987.13;;;6.72;100.00
60355;BME280;46198;51.464;-0.066;2023-03-04T10:10:06;102983.28;;;6.75;100.00
60355;BME280;46198;51.464;-0.066;2023-03-04T10:12:40;102981.88;;;6.90;100.00
60355;BME280;46198;51.464;-0.066;2023-03-04T10:15:20;102985.56;;;7.08;100.00
60355;BME280;46198;51.464;-0.066;2023-03-04T10:17:54;102981.72;;;7.01;100.00
60355;BME280;46198;51.464;-0.066;2023-03-04T10:20:25;102979.53;;;7.24;100.00
60355;BME280;46198;51.464;-0.066;2023-03-04T10:22:58;102975.38;;;7.40;100.00
60355;BME280;46198;51.464;-0.066;2023-03-04T10:28:23;102992.97;;;7.53;100.00
60355;BME280;46198;51.464;-0.066;2023-03-04T10:30:57;102990.16;;;7.45;100.00
60355;BME280;46198;51.464;-0.066;2023-03-04T10:33:29;102991.28;;;7.52;100.00
60355;BME280;46198;51.464;-0.066;2023-03-04T10:36:00;102978.75;;;7.51;100.00
60355;BME280;46198;51.464;-0.066;2023-03-04T10:38:31;102981.03;;;7.56;100.00
60355;BME280;46198;51.464;-0.066;2023-03-04T10:40:59;102982.91;;;7.46;100.00
60355;BME280;46198;51.464;-0.066;2023-03-04T10:43:29;102975.91;;;7.63;100.00
60355;BME280;46198;51.464;-0.066;2023-03-04T10:45:57;102970.00;;;7.77;100.00
60355;BME280;46198;51.464;-0.066;2023-03-04T10:48:29;102966.91;;;7.99;100.00
60355;BME280;46198;51.464;-0.066;2023-03-04T10:51:11;102965.75;;;8.02;100.00
60355;BME280;46198;51.464;-0.066;2023-03-04T10:53:41;102955.50;;;8.24;100.00
60355;BME280;46198;51.464;-0.066;2023-03-04T10:56:31;102949.03;;;8.34;100.00
60355;BME280;46198;51.464;-0.066;2023-03-04T10:59:28;102956.00;;;8.55;100.00
60355;BME280;46198;51.464;-0.066;2023-03-04T11:01:57;102952.16;;;8.39;96.58
60355;BME280;46198;51.464;-0.066;2023-03-04T11:04:33;102946.16;;;8.18;95.94
60355;BME280;46198;51.464;-0.066;2023-03-04T11:07:07;102939.56;;;8.38;100.00
60355;BME280;46198;51.464;-0.066;2023-03-04T11:09:36;102940.31;;;8.40;97.90
60355;BME280;46198;51.464;-0.066;2023-03-04T11:12:10;102940.19;;;8.32;95.86
60355;BME280;46198;51.464;-0.066;2023-03-04T11:14:40;102940.72;;;8.36;99.65
60355;BME280;46198;51.464;-0.066;2023-03-04T11:17:18;102941.84;;;8.25;96.20
60355;BME280;46198;51.464;-0.066;2023-03-04T11:20:13;102943.44;;;8.18;98.23
60355;BME280;46198;51.464;-0.066;2023-03-04T11:22:44;102944.59;;;8.15;95.75
60355;BME280;46198;51.464;-0.066;2023-03-04T11:25:20;102951.59;;;8.08;96.24
60355;BME280;46198;51.464;-0.066;2023-03-04T11:27:53;102938.47;;;7.95;94.75
60355;BME280;46198;51.464;-0.066;2023-03-04T11:30:28;102934.19;;;7.93;96.71
60355;BME280;46198;51.464;-0.066;2023-03-04T11:33:09;102930.34;;;7.95;94.89
60355;BME280;46198;51.464;-0.066;2023-03-04T11:35:44;102927.63;;;7.95;96.16
60355;BME280;46198;51.464;-0.066;2023-03-04T11:38:18;102931.00;;;7.97;98.34
60355;BME280;46198;51.464;-0.066;2023-03-04T11:40:48;102928.78;;;7.93;96.13
60355;BME280;46198;51.464;-0.066;2023-03-04T11:43:21;102922.81;;;7.89;97.94
60355;BME280;46198;51.464;-0.066;2023-03-04T11:46:28;102918.00;;;7.83;97.81
60355;BME280;46198;51.464;-0.066;2023-03-04T11:49:09;102921.00;;;7.80;99.96
60355;BME280;46198;51.464;-0.066;2023-03-04T11:51:49;102914.47;;;7.83;100.00
60355;BME280;46198;51.464;-0.066;2023-03-04T11:54:28;102914.06;;;7.77;100.00
60355;BME280;46198;51.464;-0.066;2023-03-04T11:57:05;102919.78;;;7.65;99.08
60355;BME280;46198;51.464;-0.066;2023-03-04T11:59:45;102911.25;;;7.69;99.61
60355;BME280;46198;51.464;-0.066;2023-03-04T12:02:18;102918.72;;;7.58;99.87
60355;BME280;46198;51.464;-0.066;2023-03-04T12:05:14;102917.00;;;7.57;99.92
60355;BME280;46198;51.464;-0.066;2023-03-04T12:08:21;102913.00;;;7.61;97.81
60355;BME280;46198;51.464;-0.066;2023-03-04T12:10:58;102912.28;;;7.59;99.19
60355;BME280;46198;51.464;-0.066;2023-03-04T12:14:04;102905.63;;;7.53;96.78
60355;BME280;46198;51.464;-0.066;2023-03-04T12:16:47;102904.72;;;7.62;97.81
60355;BME280;46198;51.464;-0.066;2023-03-04T12:19:26;102903.97;;;7.70;98.95
60355;BME280;46198;51.464;-0.066;2023-03-04T12:22:29;102896.28;;;7.75;94.37
60355;BME280;46198;51.464;-0.066;2023-03-04T12:25:11;102881.50;;;7.69;88.78
60355;BME280;46198;51.464;-0.066;2023-03-04T12:27:48;102883.88;;;7.82;93.14
60355;BME280;46198;51.464;-0.066;2023-03-04T12:30:34;102876.50;;;7.92;90.82
60355;BME280;46198;51.464;-0.066;2023-03-04T12:33:16;102877.75;;;7.80;93.06
60355;BME280;46198;51.464;-0.066;2023-03-04T12:35:53;102878.44;;;7.82;88.03
60355;BME280;46198;51.464;-0.066;2023-03-04T12:39:24;102870.34;;;7.82;88.92
60355;BME280;46198;51.464;-0.066;2023-03-04T12:42:04;102863.91;;;7.83;87.75
60355;BME280;46198;51.464;-0.066;2023-03-04T12:44:41;102876.53;;;7.65;85.55
60355;BME280;46198;51.464;-0.066;2023-03-04T12:47:22;102867.75;;;7.63;89.44
60355;BME280;46198;51.464;-0.066;2023-03-04T12:49:57;102859.56;;;7.72;87.49
60355;BME280;46198;51.464;-0.066;2023-03-04T12:52:36;102852.31;;;7.73;89.23
60355;BME280;46198;51.464;-0.066;2023-03-04T12:55:15;102849.91;;;7.70;90.24
60355;BME280;46198;51.464;-0.066;2023-03-04T12:57:45;102838.25;;;7.69;85.75
60355;BME280;46198;51.464;-0.066;2023-03-04T13:00:21;102843.66;;;7.69;84.70
60355;BME280;46198;51.464;-0.066;2023-03-04T13:02:59;102838.69;;;7.65;86.23
60355;BME280;46198;51.464;-0.066;2023-03-04T13:05:43;102830.56;;;7.65;86.86
60355;BME280;46198;51.464;-0.066;2023-03-04T13:08:27;102827.47;;;7.60;84.54
60355;BME280;46198;51.464;-0.066;2023-03-04T13:11:00;102837.00;;;7.64;86.75
60355;BME280;46198;51.464;-0.066;2023-03-04T13:13:34;102824.84;;;7.68;87.38